sensor_id;sensor_type;location;lat;lon;timestamp;pressure;altitude;pressure_sealevel;temperature;humidity
61408;BME280;47274;43.054;25.146;2023-02-13T20:22:37;97012.72;;;0.36;83.07
61408;BME280;47274;43.054;25.146;2023-02-13T20:25:06;97017.09;;;0.31;83.62
61408;BME280;47274;43.054;25.146;2023-02-13T20:27:35;97019.00;;;0.25;83.94
61408;BME280;47274;43.054;25.146;2023-02-13T20:30:01;97012.25;;;0.25;84.04
61408;BME280;47274;43.054;25.146;2023-02-13T20:32:29;97008.00;;;0.26;85.58
61408;BME280;47274;43.054;25.146;2023-02-13T20:34:55;97008.00;;;0.26;86.14
61408;BME280;47274;43.054;25.146;2023-02-13T20:37:23;97009.53;;;0.31;86.68
61408;BME280;47274;43.054;25.146;2023-02-13T20:39:49;97004.16;;;0.42;86.78
61408;BME280;47274;43.054;25.146;2023-02-13T20:42:15;97002.47;;;0.41;86.84
61408;BME280;47274;43.054;25.146;2023-02-13T20:44:41;96999.28;;;0.36;86.90
61408;BME280;47274;43.054;25.146;2023-02-13T20:47:09;96990.00;;;0.36;86.85
61408;BME280;47274;43.054;25.146;2023-02-13T20:49:35;96974.91;;;0.35;86.66
61408;BME280;47274;43.054;25.146;2023-02-13T20:52:03;96979.41;;;0.25;86.58
61408;BME280;47274;43.054;25.146;2023-02-13T20:54:30;96983.59;;;0.26;86.41
61408;BME280;47274;43.054;25.146;2023-02-13T20:56:57;96984.19;;;0.06;86.67
61408;BME280;47274;43.054;25.146;2023-02-13T20:59:24;96981.97;;;-0.03;86.55
61408;BME280;47274;43.054;25.146;2023-02-13T21:01:51;96976.91;;;-0.03;87.63
61408;BME280;47274;43.054;25.146;2023-02-13T21:04:17;96979.03;;;0.09;86.64
61408;BME280;47274;43.054;25.146;2023-02-13T21:06:47;96973.75;;;0.45;84.58
61408;BME280;47274;43.054;25.146;2023-02-13T21:09:14;96968.44;;;0.53;84.16
61408;BME280;47274;43.054;25.146;2023-02-13T21:11:43;96960.69;;;0.57;83.20
61408;BME280;47274;43.054;25.146;2023-02-13T21:14:11;96938.88;;;0.55;82.74
61408;BME280;47274;43.054;25.146;2023-02-13T21:16:40;96966.63;;;0.83;81.81
61408;BME280;47274;43.054;25.146;2023-02-13T21:19:17;96961.78;;;0.75;81.87
61408;BME280;47274;43.054;25.146;2023-02-13T21:21:45;96961.56;;;0.83;81.47
61408;BME280;47274;43.054;25.146;2023-02-13T21:24:21;96960.28;;;0.96;79.71
61408;BME280;47274;43.054;25.146;2023-02-13T21:26:50;96922.47;;;0.93;78.86
61408;BME280;47274;43.054;25.146;2023-02-13T21:29:18;96949.44;;;1.16;77.93
61408;BME280;47274;43.054;25.146;2023-02-13T21:31:45;96950.22;;;1.18;77.59
61408;BME280;47274;43.054;25.146;2023-02-13T21:34:16;96939.31;;;1.17;77.35
61408;BME280;47274;43.054;25.146;2023-02-13T21:36:43;96942.56;;;1.19;77.17
61408;BME280;47274;43.054;25.146;2023-02-13T21:39:10;96943.69;;;1.12;77.41
61408;BME280;47274;43.054;25.146;2023-02-13T21:41:39;96941.25;;;1.09;77.18
61408;BME280;47274;43.054;25.146;2023-02-13T21:44:05;96930.28;;;1.10;76.48
61408;BME280;47274;43.054;25.146;2023-02-13T21:46:35;96933.19;;;1.00;77.01
61408;BME280;47274;43.054;25.146;2023-02-13T21:49:04;96927.41;;;0.96;76.33
61408;BME280;47274;43.054;25.146;2023-02-13T21:51:34;96923.19;;;0.97;75.94
61408;BME280;47274;43.054;25.146;2023-02-13T21:54:01;96934.22;;;0.94;76.36
61408;BME280;47274;43.054;25.146;2023-02-13T21:56:33;96919.34;;;0.85;76.73
61408;BME280;47274;43.054;25.146;2023-02-13T21:58:59;96908.53;;;0.81;76.44
61408;BME280;47274;43.054;25.146;2023-02-13T22:01:34;96911.88;;;0.82;76.72
61408;BME280;47274;43.054;25.146;2023-02-13T22:04:05;96917.09;;;0.77;77.00
61408;BME280;47274;43.054;25.146;2023-02-13T22:06:33;96913.78;;;0.75;77.18
61408;BME280;47274;43.054;25.146;2023-02-13T22:09:10;96910.78;;;0.65;77.43
61408;BME280;47274;43.054;25.146;2023-02-13T22:11:37;96901.59;;;0.63;77.18
61408;BME280;47274;43.054;25.146;2023-02-13T22:14:05;96883.50;;;0.50;77.19
61408;BME280;47274;43.054;25.146;2023-02-13T22:16:35;96908.34;;;0.62;76.21
61408;BME280;47274;43.054;25.146;2023-02-13T22:19:02;96890.69;;;0.61;76.13
61408;BME280;47274;43.054;25.146;2023-02-13T22:21:30;96895.75;;;0.61;75.75
61408;BME280;47274;43.054;25.146;2023-02-13T22:23:56;96899.88;;;0.63;75.77
61408;BME280;47274;43.054;25.146;2023-02-13T22:26:31;96901.59;;;0.63;75.54
61408;BME280;47274;43.054;25.146;2023-02-13T22:29:00;96893.22;;;0.61;75.23
61408;BME280;47274;43.054;25.146;2023-02-13T22:31:28;96897.53;;;0.59;75.39
61408;BME280;47274;43.054;25.146;2023-02-13T22:33:55;96893.38;;;0.56;75.45
61408;BME280;47274;43.054;25.146;2023-02-13T22:36:21;96887.53;;;0.56;75.26
61408;BME280;47274;43.054;25.146;2023-02-13T22:38:48;96889.97;;;0.57;75.74
61408;BME280;47274;43.054;25.146;2023-02-13T22:41:22;96892.50;;;0.57;75.09
61408;BME280;47274;43.054;25.146;2023-02-13T22:43:50;96890.06;;;0.54;75.33
61408;BME280;47274;43.054;25.146;2023-02-13T22:46:22;96888.25;;;0.59;74.74
61408;BME280;47274;43.054;25.146;2023-02-13T22:48:49;96874.94;;;0.54;74.93
61408;BME280;47274;43.054;25.146;2023-02-13T22:51:23;96891.97;;;0.47;75.52
61408;BME280;47274;43.054;25.146;2023-02-13T22:53:55;96892.69;;;0.51;75.02
61408;BME280;47274;43.054;25.146;2023-02-13T22:56:23;96892.78;;;0.50;74.41
61408;BME280;47274;43.054;25.146;2023-02-13T22:58:49;96887.09;;;0.43;74.52
61408;BME280;47274;43.054;25.146;2023-02-13T23:01:20;96878.28;;;0.30;75.26
61408;BME280;47274;43.054;25.146;2023-02-13T23:03:46;96877.50;;;0.28;75.31
61408;BME280;47274;43.054;25.146;2023-02-13T23:06:13;96896.63;;;0.35;75.41
61408;BME280;47274;43.054;25.146;2023-02-13T23:08:40;96893.31;;;0.33;75.04
61408;BME280;47274;43.054;25.146;2023-02-13T23:11:14;96893.41;;;0.30;75.09
61408;BME280;47274;43.054;25.146;2023-02-13T23:14:01;96897.66;;;0.29;75.10
61408;BME280;47274;43.054;25.146;2023-02-13T23:16:29;96890.25;;;0.23;74.75
61408;BME280;47274;43.054;25.146;2023-02-13T23:19:20;96891.19;;;0.20;75.03
61408;BME280;47274;43.054;25.146;2023-02-13T23:21:48;96884.66;;;0.15;75.29
61408;BME280;47274;43.054;25.146;2023-02-13T23:24:15;96890.59;;;0.14;75.36
61408;BME280;47274;43.054;25.146;2023-02-13T23:26:42;96898.03;;;0.17;74.67
61408;BME280;47274;43.054;25.146;2023-02-13T23:29:08;96890.59;;;0.14;74.98
61408;BME280;47274;43.054;25.146;2023-02-13T23:31:34;96894.75;;;0.15;75.01
61408;BME280;47274;43.054;25.146;2023-02-13T23:34:01;96898.25;;;0.11;74.58
61408;BME280;47274;43.054;25.146;2023-02-13T23:36:26;96883.97;;;0.10;74.61
61408;BME280;47274;43.054;25.146;2023-02-13T23:38:53;96897.41;;;0.10;74.59
61408;BME280;47274;43.054;25.146;2023-02-13T23:41:19;96903.31;;;0.11;74.78
61408;BME280;47274;43.054;25.146;2023-02-13T23:43:45;96896.72;;;0.05;75.22
61408;BME280;47274;43.054;25.146;2023-02-13T23:46:10;96898.38;;;0.06;74.76
61408;BME280;47274;43.054;25.146;2023-02-13T23:48:36;96891.75;;;0.04;74.68
61408;BME280;47274;43.054;25.146;2023-02-13T23:51:02;96884.84;;;0.09;74.61
61408;BME280;47274;43.054;25.146;2023-02-13T23:53:28;96896.63;;;0.08;73.86
61408;BME280;47274;43.054;25.146;2023-02-13T23:55:54;96900.13;;;0.04;74.13
61408;BME280;47274;43.054;25.146;2023-02-13T23:58:21;96904.22;;;0.08;73.73
